sensor_id;sensor_type;location;lat;lon;timestamp;temperature;humidity
17632;DHT22;8934;51.194;17.150;2022-12-29T00:00:53;6.20;99.90
17632;DHT22;8934;51.194;17.150;2022-12-29T00:03:41;6.20;99.90
17632;DHT22;8934;51.194;17.150;2022-12-29T00:06:28;6.20;99.90
17632;DHT22;8934;51.194;17.150;2022-12-29T00:09:15;6.30;99.90
17632;DHT22;8934;51.194;17.150;2022-12-29T00:12:03;6.40;99.90
17632;DHT22;8934;51.194;17.150;2022-12-29T00:14:51;6.40;99.90
17632;DHT22;8934;51.194;17.150;2022-12-29T00:17:57;6.40;99.90
17632;DHT22;8934;51.194;17.150;2022-12-29T00:20:44;6.40;99.90
17632;DHT22;8934;51.194;17.150;2022-12-29T00:23:49;6.40;99.90
17632;DHT22;8934;51.194;17.150;2022-12-29T00:26:55;6.40;99.90
17632;DHT22;8934;51.194;17.150;2022-12-29T00:30:01;6.40;99.90
17632;DHT22;8934;51.194;17.150;2022-12-29T00:33:10;6.30;99.90
17632;DHT22;8934;51.194;17.150;2022-12-29T00:36:17;6.30;99.90
17632;DHT22;8934;51.194;17.150;2022-12-29T00:39:06;6.40;99.90
17632;DHT22;8934;51.194;17.150;2022-12-29T00:42:12;6.40;99.90
17632;DHT22;8934;51.194;17.150;2022-12-29T00:45:16;6.40;99.90
17632;DHT22;8934;51.194;17.150;2022-12-29T00:48:06;6.40;99.90
17632;DHT22;8934;51.194;17.150;2022-12-29T00:50:56;6.40;99.90
17632;DHT22;8934;51.194;17.150;2022-12-29T00:53:42;6.40;99.90
17632;DHT22;8934;51.194;17.150;2022-12-29T00:56:30;6.40;99.90
17632;DHT22;8934;51.194;17.150;2022-12-29T00:59:18;6.50;99.90
17632;DHT22;8934;51.194;17.150;2022-12-29T01:02:06;6.40;99.90
17632;DHT22;8934;51.194;17.150;2022-12-29T01:04:54;6.50;99.90
17632;DHT22;8934;51.194;17.150;2022-12-29T01:07:43;6.40;99.90
17632;DHT22;8934;51.194;17.150;2022-12-29T01:10:30;6.50;99.90
17632;DHT22;8934;51.194;17.150;2022-12-29T01:13:17;6.50;99.90
17632;DHT22;8934;51.194;17.150;2022-12-29T01:16:04;6.50;99.90
17632;DHT22;8934;51.194;17.150;2022-12-29T01:18:53;6.50;99.90
17632;DHT22;8934;51.194;17.150;2022-12-29T01:21:40;6.50;99.90
17632;DHT22;8934;51.194;17.150;2022-12-29T01:24:29;6.50;99.90
17632;DHT22;8934;51.194;17.150;2022-12-29T01:27:16;6.50;99.90
17632;DHT22;8934;51.194;17.150;2022-12-29T01:30:04;6.50;99.90
17632;DHT22;8934;51.194;17.150;2022-12-29T01:32:51;6.60;99.90
17632;DHT22;8934;51.194;17.150;2022-12-29T01:35:39;6.50;99.90
17632;DHT22;8934;51.194;17.150;2022-12-29T01:38:26;6.50;99.90
17632;DHT22;8934;51.194;17.150;2022-12-29T01:41:15;6.60;99.90
17632;DHT22;8934;51.194;17.150;2022-12-29T01:47:06;6.60;99.90
17632;DHT22;8934;51.194;17.150;2022-12-29T01:49:55;6.50;99.90
17632;DHT22;8934;51.194;17.150;2022-12-29T01:52:44;6.40;99.90
17632;DHT22;8934;51.194;17.150;2022-12-29T01:55:34;6.40;99.90
17632;DHT22;8934;51.194;17.150;2022-12-29T01:58:24;6.30;99.90
17632;DHT22;8934;51.194;17.150;2022-12-29T02:01:13;6.20;99.90
17632;DHT22;8934;51.194;17.150;2022-12-29T02:04:02;6.20;99.90
17632;DHT22;8934;51.194;17.150;2022-12-29T02:06:51;6.20;99.90
17632;DHT22;8934;51.194;17.150;2022-12-29T02:09:40;6.30;99.90
17632;DHT22;8934;51.194;17.150;2022-12-29T02:12:28;6.30;99.90
17632;DHT22;8934;51.194;17.150;2022-12-29T02:15:16;6.20;99.90
17632;DHT22;8934;51.194;17.150;2022-12-29T02:18:08;6.10;99.90
17632;DHT22;8934;51.194;17.150;2022-12-29T02:21:09;6.20;99.90
17632;DHT22;8934;51.194;17.150;2022-12-29T02:24:14;6.10;99.90
17632;DHT22;8934;51.194;17.150;2022-12-29T02:27:22;6.00;99.90
17632;DHT22;8934;51.194;17.150;2022-12-29T02:36:23;5.90;99.90
17632;DHT22;8934;51.194;17.150;2022-12-29T02:39:12;5.80;99.90
17632;DHT22;8934;51.194;17.150;2022-12-29T02:42:03;5.80;99.90
17632;DHT22;8934;51.194;17.150;2022-12-29T02:44:55;5.80;99.90
17632;DHT22;8934;51.194;17.150;2022-12-29T02:47:45;5.80;99.90
17632;DHT22;8934;51.194;17.150;2022-12-29T02:50:37;5.70;99.90
17632;DHT22;8934;51.194;17.150;2022-12-29T02:53:27;5.70;99.90
17632;DHT22;8934;51.194;17.150;2022-12-29T02:56:47;5.60;99.90
17632;DHT22;8934;51.194;17.150;2022-12-29T02:59:35;5.60;99.90
17632;DHT22;8934;51.194;17.150;2022-12-29T03:02:27;5.60;99.90
17632;DHT22;8934;51.194;17.150;2022-12-29T03:05:21;5.60;99.90
17632;DHT22;8934;51.194;17.150;2022-12-29T03:08:12;5.60;99.90
17632;DHT22;8934;51.194;17.150;2022-12-29T03:11:03;5.60;99.90
17632;DHT22;8934;51.194;17.150;2022-12-29T03:13:51;5.70;99.90
17632;DHT22;8934;51.194;17.150;2022-12-29T03:16:58;5.70;99.90
17632;DHT22;8934;51.194;17.150;2022-12-29T03:19:48;5.80;99.90
17632;DHT22;8934;51.194;17.150;2022-12-29T03:22:41;5.90;99.90
17632;DHT22;8934;51.194;17.150;2022-12-29T03:25:33;5.90;99.90
17632;DHT22;8934;51.194;17.150;2022-12-29T03:28:28;6.00;99.90
17632;DHT22;8934;51.194;17.150;2022-12-29T03:31:16;6.00;99.90
17632;DHT22;8934;51.194;17.150;2022-12-29T03:34:06;6.00;99.90
17632;DHT22;8934;51.194;17.150;2022-12-29T03:36:54;6.00;99.90
17632;DHT22;8934;51.194;17.150;2022-12-29T03:39:42;6.10;99.90
17632;DHT22;8934;51.194;17.150;2022-12-29T03:42:30;6.10;99.90
17632;DHT22;8934;51.194;17.150;2022-12-29T03:45:21;6.10;99.90
17632;DHT22;8934;51.194;17.150;2022-12-29T03:48:08;6.10;99.90
17632;DHT22;8934;51.194;17.150;2022-12-29T03:50:59;6.10;99.90
17632;DHT22;8934;51.194;17.150;2022-12-29T03:53:46;6.00;99.90
17632;DHT22;8934;51.194;17.150;2022-12-29T03:56:34;6.00;99.90
17632;DHT22;8934;51.194;17.150;2022-12-29T03:59:22;6.00;99.90
17632;DHT22;8934;51.194;17.150;2022-12-29T04:02:11;5.90;99.90
17632;DHT22;8934;51.194;17.150;2022-12-29T04:05:00;6.00;99.90
17632;DHT22;8934;51.194;17.150;2022-12-29T04:07:47;6.00;99.90
17632;DHT22;8934;51.194;17.150;2022-12-29T04:10:35;6.00;99.90
17632;DHT22;8934;51.194;17.150;2022-12-29T04:13:24;5.90;99.90
17632;DHT22;8934;51.194;17.150;2022-12-29T04:16:11;5.90;99.90
17632;DHT22;8934;51.194;17.150;2022-12-29T04:19:00;5.90;99.90
17632;DHT22;8934;51.194;17.150;2022-12-29T04:21:47;5.90;99.90
17632;DHT22;8934;51.194;17.150;2022-12-29T04:24:35;5.90;99.90
17632;DHT22;8934;51.194;17.150;2022-12-29T04:27:22;5.90;99.90
17632;DHT22;8934;51.194;17.150;2022-12-29T04:30:28;6.00;99.90
17632;DHT22;8934;51.194;17.150;2022-12-29T04:33:24;6.00;99.90
17632;DHT22;8934;51.194;17.150;2022-12-29T04:36:13;6.00;99.90
17632;DHT22;8934;51.194;17.150;2022-12-29T04:39:02;6.00;99.90
17632;DHT22;8934;51.194;17.150;2022-12-29T04:41:51;6.10;99.90
17632;DHT22;8934;51.194;17.150;2022-12-29T04:44:40;6.10;99.90
17632;DHT22;8934;51.194;17.150;2022-12-29T04:47:40;6.10;99.90
17632;DHT22;8934;51.194;17.150;2022-12-29T04:50:47;6.10;99.90
17632;DHT22;8934;51.194;17.150;2022-12-29T04:53:42;6.20;99.90
17632;DHT22;8934;51.194;17.150;2022-12-29T04:56:29;6.20;99.90
17632;DHT22;8934;51.194;17.150;2022-12-29T04:59:16;6.20;99.90
17632;DHT22;8934;51.194;17.150;2022-12-29T05:02:07;6.20;99.90
17632;DHT22;8934;51.194;17.150;2022-12-29T05:04:54;6.20;99.90
17632;DHT22;8934;51.194;17.150;2022-12-29T05:07:42;6.30;99.90
17632;DHT22;8934;51.194;17.150;2022-12-29T05:10:31;6.30;99.90
17632;DHT22;8934;51.194;17.150;2022-12-29T05:13:22;6.30;99.90
17632;DHT22;8934;51.194;17.150;2022-12-29T05:16:10;6.30;99.90
17632;DHT22;8934;51.194;17.150;2022-12-29T05:18:57;6.40;99.90
17632;DHT22;8934;51.194;17.150;2022-12-29T05:21:45;6.40;99.90
17632;DHT22;8934;51.194;17.150;2022-12-29T05:24:32;6.40;99.90
17632;DHT22;8934;51.194;17.150;2022-12-29T05:27:21;6.50;99.90
17632;DHT22;8934;51.194;17.150;2022-12-29T05:30:27;6.60;99.90
17632;DHT22;8934;51.194;17.150;2022-12-29T05:33:16;6.60;99.90
17632;DHT22;8934;51.194;17.150;2022-12-29T05:36:04;6.60;99.90
17632;DHT22;8934;51.194;17.150;2022-12-29T05:38:52;6.60;99.90
17632;DHT22;8934;51.194;17.150;2022-12-29T05:41:39;6.60;99.90
17632;DHT22;8934;51.194;17.150;2022-12-29T05:44:46;6.60;99.90
17632;DHT22;8934;51.194;17.150;2022-12-29T05:47:50;6.50;99.90
17632;DHT22;8934;51.194;17.150;2022-12-29T05:50:56;6.50;99.90
17632;DHT22;8934;51.194;17.150;2022-12-29T05:53:53;6.60;99.90
17632;DHT22;8934;51.194;17.150;2022-12-29T05:56:41;6.60;99.90
17632;DHT22;8934;51.194;17.150;2022-12-29T05:59:28;6.70;99.90
17632;DHT22;8934;51.194;17.150;2022-12-29T06:02:17;6.70;99.90
17632;DHT22;8934;51.194;17.150;2022-12-29T06:05:06;6.80;99.90
17632;DHT22;8934;51.194;17.150;2022-12-29T06:07:55;6.90;99.90
17632;DHT22;8934;51.194;17.150;2022-12-29T06:10:43;7.00;99.90
17632;DHT22;8934;51.194;17.150;2022-12-29T06:13:30;7.10;99.90
17632;DHT22;8934;51.194;17.150;2022-12-29T06:16:18;7.20;99.90
17632;DHT22;8934;51.194;17.150;2022-12-29T06:19:09;7.20;99.90
17632;DHT22;8934;51.194;17.150;2022-12-29T06:21:56;7.20;99.90
17632;DHT22;8934;51.194;17.150;2022-12-29T06:24:43;7.20;99.90
17632;DHT22;8934;51.194;17.150;2022-12-29T06:27:31;7.30;99.90
17632;DHT22;8934;51.194;17.150;2022-12-29T06:30:19;7.30;99.90
17632;DHT22;8934;51.194;17.150;2022-12-29T06:33:06;7.30;99.90
17632;DHT22;8934;51.194;17.150;2022-12-29T06:35:55;7.30;99.90
17632;DHT22;8934;51.194;17.150;2022-12-29T06:38:43;7.30;99.90
17632;DHT22;8934;51.194;17.150;2022-12-29T06:41:31;7.30;99.90
17632;DHT22;8934;51.194;17.150;2022-12-29T06:44:36;7.30;99.90
17632;DHT22;8934;51.194;17.150;2022-12-29T06:47:27;7.30;99.90
17632;DHT22;8934;51.194;17.150;2022-12-29T06:50:15;7.30;99.90
17632;DHT22;8934;51.194;17.150;2022-12-29T06:53:03;7.30;99.90
17632;DHT22;8934;51.194;17.150;2022-12-29T06:55:51;7.30;99.90
17632;DHT22;8934;51.194;17.150;2022-12-29T06:58:38;7.40;99.90
17632;DHT22;8934;51.194;17.150;2022-12-29T07:01:25;7.40;99.90
17632;DHT22;8934;51.194;17.150;2022-12-29T07:04:13;7.40;99.90
17632;DHT22;8934;51.194;17.150;2022-12-29T07:07:00;7.40;99.90
17632;DHT22;8934;51.194;17.150;2022-12-29T07:09:49;7.40;99.90
17632;DHT22;8934;51.194;17.150;2022-12-29T07:12:36;7.40;99.90
17632;DHT22;8934;51.194;17.150;2022-12-29T07:15:23;7.30;99.90
17632;DHT22;8934;51.194;17.150;2022-12-29T07:18:11;7.30;99.90
17632;DHT22;8934;51.194;17.150;2022-12-29T07:20:58;7.30;99.90
17632;DHT22;8934;51.194;17.150;2022-12-29T07:23:46;7.30;99.90
17632;DHT22;8934;51.194;17.150;2022-12-29T07:26:35;7.30;99.90
17632;DHT22;8934;51.194;17.150;2022-12-29T07:29:22;7.30;99.90
17632;DHT22;8934;51.194;17.150;2022-12-29T07:32:10;7.40;99.90
17632;DHT22;8934;51.194;17.150;2022-12-29T07:34:57;7.40;99.90
17632;DHT22;8934;51.194;17.150;2022-12-29T07:37:44;7.40;99.90
17632;DHT22;8934;51.194;17.150;2022-12-29T07:40:32;7.30;99.90
17632;DHT22;8934;51.194;17.150;2022-12-29T07:43:21;7.40;99.90
17632;DHT22;8934;51.194;17.150;2022-12-29T07:46:27;7.40;99.90
17632;DHT22;8934;51.194;17.150;2022-12-29T07:49:35;7.40;99.90
17632;DHT22;8934;51.194;17.150;2022-12-29T07:52:22;7.50;99.90
17632;DHT22;8934;51.194;17.150;2022-12-29T07:55:09;7.50;99.90
17632;DHT22;8934;51.194;17.150;2022-12-29T07:57:57;7.50;99.90
17632;DHT22;8934;51.194;17.150;2022-12-29T08:00:46;7.50;99.90
17632;DHT22;8934;51.194;17.150;2022-12-29T08:03:33;7.50;99.90
17632;DHT22;8934;51.194;17.150;2022-12-29T08:06:20;7.50;99.90
17632;DHT22;8934;51.194;17.150;2022-12-29T08:09:08;7.60;99.90
17632;DHT22;8934;51.194;17.150;2022-12-29T08:12:04;7.60;99.90
17632;DHT22;8934;51.194;17.150;2022-12-29T08:14:51;7.70;99.90
17632;DHT22;8934;51.194;17.150;2022-12-29T08:17:40;7.80;99.90
17632;DHT22;8934;51.194;17.150;2022-12-29T08:20:28;7.90;99.90
17632;DHT22;8934;51.194;17.150;2022-12-29T08:23:15;7.90;99.90
17632;DHT22;8934;51.194;17.150;2022-12-29T08:26:03;8.00;99.90
17632;DHT22;8934;51.194;17.150;2022-12-29T08:28:51;8.00;99.90
17632;DHT22;8934;51.194;17.150;2022-12-29T08:31:39;8.10;99.90
17632;DHT22;8934;51.194;17.150;2022-12-29T08:34:27;8.20;99.90
17632;DHT22;8934;51.194;17.150;2022-12-29T08:37:15;8.20;99.90
17632;DHT22;8934;51.194;17.150;2022-12-29T08:40:02;8.20;99.90
17632;DHT22;8934;51.194;17.150;2022-12-29T08:42:50;8.30;99.90
17632;DHT22;8934;51.194;17.150;2022-12-29T08:45:37;8.30;99.90
17632;DHT22;8934;51.194;17.150;2022-12-29T08:48:24;8.40;99.90
17632;DHT22;8934;51.194;17.150;2022-12-29T08:51:13;8.50;99.90
17632;DHT22;8934;51.194;17.150;2022-12-29T08:54:07;8.60;99.90
17632;DHT22;8934;51.194;17.150;2022-12-29T08:56:55;8.60;99.90
17632;DHT22;8934;51.194;17.150;2022-12-29T08:59:50;8.70;99.90
17632;DHT22;8934;51.194;17.150;2022-12-29T09:02:37;8.70;99.90
17632;DHT22;8934;51.194;17.150;2022-12-29T09:05:25;8.80;99.90
17632;DHT22;8934;51.194;17.150;2022-12-29T09:08:14;8.80;99.90
17632;DHT22;8934;51.194;17.150;2022-12-29T09:11:11;8.80;99.90
17632;DHT22;8934;51.194;17.150;2022-12-29T09:13:59;8.90;99.90
17632;DHT22;8934;51.194;17.150;2022-12-29T09:16:46;8.90;99.90
17632;DHT22;8934;51.194;17.150;2022-12-29T09:19:51;8.90;99.90
17632;DHT22;8934;51.194;17.150;2022-12-29T09:22:38;9.00;99.90
17632;DHT22;8934;51.194;17.150;2022-12-29T09:25:26;9.00;99.90
17632;DHT22;8934;51.194;17.150;2022-12-29T09:28:14;9.10;99.90
17632;DHT22;8934;51.194;17.150;2022-12-29T09:31:02;9.10;99.90
17632;DHT22;8934;51.194;17.150;2022-12-29T09:33:49;9.20;99.90
17632;DHT22;8934;51.194;17.150;2022-12-29T09:36:37;9.30;99.90
17632;DHT22;8934;51.194;17.150;2022-12-29T09:39:24;9.30;99.90
17632;DHT22;8934;51.194;17.150;2022-12-29T09:42:14;9.40;99.90
17632;DHT22;8934;51.194;17.150;2022-12-29T09:45:05;9.40;99.90
17632;DHT22;8934;51.194;17.150;2022-12-29T09:47:55;9.50;99.90
17632;DHT22;8934;51.194;17.150;2022-12-29T09:50:43;9.50;99.90
17632;DHT22;8934;51.194;17.150;2022-12-29T09:53:34;9.60;99.90
17632;DHT22;8934;51.194;17.150;2022-12-29T09:56:24;9.60;99.90
17632;DHT22;8934;51.194;17.150;2022-12-29T09:59:14;9.60;99.90
17632;DHT22;8934;51.194;17.150;2022-12-29T10:02:04;9.70;99.90
17632;DHT22;8934;51.194;17.150;2022-12-29T10:04:54;9.70;99.90
17632;DHT22;8934;51.194;17.150;2022-12-29T10:07:43;9.80;99.90
17632;DHT22;8934;51.194;17.150;2022-12-29T10:10:34;9.80;99.90
17632;DHT22;8934;51.194;17.150;2022-12-29T10:13:26;9.80;99.90
17632;DHT22;8934;51.194;17.150;2022-12-29T10:16:20;9.80;99.90
17632;DHT22;8934;51.194;17.150;2022-12-29T10:19:28;9.80;99.90
17632;DHT22;8934;51.194;17.150;2022-12-29T10:22:23;9.90;99.90
17632;DHT22;8934;51.194;17.150;2022-12-29T10:25:17;9.90;99.90
17632;DHT22;8934;51.194;17.150;2022-12-29T10:28:06;9.90;99.90
17632;DHT22;8934;51.194;17.150;2022-12-29T10:30:56;10.00;99.90
17632;DHT22;8934;51.194;17.150;2022-12-29T10:33:55;10.00;99.90
17632;DHT22;8934;51.194;17.150;2022-12-29T10:36:44;10.10;99.90
17632;DHT22;8934;51.194;17.150;2022-12-29T10:39:36;10.10;99.90
17632;DHT22;8934;51.194;17.150;2022-12-29T10:42:26;10.20;99.90
17632;DHT22;8934;51.194;17.150;2022-12-29T10:45:14;10.20;99.90
17632;DHT22;8934;51.194;17.150;2022-12-29T10:48:03;10.20;99.90
17632;DHT22;8934;51.194;17.150;2022-12-29T10:50:53;10.20;99.90
17632;DHT22;8934;51.194;17.150;2022-12-29T10:53:48;10.20;99.90
17632;DHT22;8934;51.194;17.150;2022-12-29T10:56:39;10.20;99.90
17632;DHT22;8934;51.194;17.150;2022-12-29T10:59:30;10.10;99.90
17632;DHT22;8934;51.194;17.150;2022-12-29T11:02:23;10.10;99.90
17632;DHT22;8934;51.194;17.150;2022-12-29T11:05:14;10.10;99.90
17632;DHT22;8934;51.194;17.150;2022-12-29T11:08:10;10.20;99.90
17632;DHT22;8934;51.194;17.150;2022-12-29T11:10:58;10.20;99.90
17632;DHT22;8934;51.194;17.150;2022-12-29T11:13:47;10.30;99.90
17632;DHT22;8934;51.194;17.150;2022-12-29T11:16:35;10.50;99.90
17632;DHT22;8934;51.194;17.150;2022-12-29T11:19:24;10.60;99.90
17632;DHT22;8934;51.194;17.150;2022-12-29T11:22:13;10.90;99.90
17632;DHT22;8934;51.194;17.150;2022-12-29T11:25:06;11.10;99.90
17632;DHT22;8934;51.194;17.150;2022-12-29T11:27:58;11.20;99.90
17632;DHT22;8934;51.194;17.150;2022-12-29T11:30:48;11.30;99.90
17632;DHT22;8934;51.194;17.150;2022-12-29T11:33:45;11.40;99.90
17632;DHT22;8934;51.194;17.150;2022-12-29T11:36:33;11.50;99.90
17632;DHT22;8934;51.194;17.150;2022-12-29T11:39:25;11.60;99.90
17632;DHT22;8934;51.194;17.150;2022-12-29T11:42:15;11.60;99.90
17632;DHT22;8934;51.194;17.150;2022-12-29T11:45:03;11.60;99.90
17632;DHT22;8934;51.194;17.150;2022-12-29T11:47:56;11.60;99.90
17632;DHT22;8934;51.194;17.150;2022-12-29T11:50:48;11.60;99.90
17632;DHT22;8934;51.194;17.150;2022-12-29T11:53:37;11.70;99.90
17632;DHT22;8934;51.194;17.150;2022-12-29T11:56:35;11.70;99.90
17632;DHT22;8934;51.194;17.150;2022-12-29T12:05:33;11.70;99.90
17632;DHT22;8934;51.194;17.150;2022-12-29T12:08:26;11.70;99.90
17632;DHT22;8934;51.194;17.150;2022-12-29T12:11:16;11.60;99.90
17632;DHT22;8934;51.194;17.150;2022-12-29T12:14:05;11.60;99.90
17632;DHT22;8934;51.194;17.150;2022-12-29T12:17:14;11.50;99.90
17632;DHT22;8934;51.194;17.150;2022-12-29T12:20:04;11.40;99.90
17632;DHT22;8934;51.194;17.150;2022-12-29T12:23:02;11.40;99.90
17632;DHT22;8934;51.194;17.150;2022-12-29T12:25:56;11.30;99.90
17632;DHT22;8934;51.194;17.150;2022-12-29T12:28:46;11.20;99.90
17632;DHT22;8934;51.194;17.150;2022-12-29T12:31:40;11.20;99.90
17632;DHT22;8934;51.194;17.150;2022-12-29T12:34:32;11.10;99.90
17632;DHT22;8934;51.194;17.150;2022-12-29T12:40:39;10.90;99.90
17632;DHT22;8934;51.194;17.150;2022-12-29T12:43:35;10.80;99.90
17632;DHT22;8934;51.194;17.150;2022-12-29T12:52:29;10.80;99.90
17632;DHT22;8934;51.194;17.150;2022-12-29T12:58:31;10.70;99.90
17632;DHT22;8934;51.194;17.150;2022-12-29T13:01:24;10.70;99.90
17632;DHT22;8934;51.194;17.150;2022-12-29T13:04:24;10.60;99.90
17632;DHT22;8934;51.194;17.150;2022-12-29T13:07:17;10.60;99.90
17632;DHT22;8934;51.194;17.150;2022-12-29T13:10:26;10.60;99.90
17632;DHT22;8934;51.194;17.150;2022-12-29T13:13:28;10.70;99.90
17632;DHT22;8934;51.194;17.150;2022-12-29T13:16:23;10.70;99.90
17632;DHT22;8934;51.194;17.150;2022-12-29T13:19:14;10.80;99.90
17632;DHT22;8934;51.194;17.150;2022-12-29T13:22:05;10.70;99.90
17632;DHT22;8934;51.194;17.150;2022-12-29T13:24:56;10.80;99.90
17632;DHT22;8934;51.194;17.150;2022-12-29T13:27:50;10.80;99.90
17632;DHT22;8934;51.194;17.150;2022-12-29T13:30:41;10.70;99.90
17632;DHT22;8934;51.194;17.150;2022-12-29T13:33:34;10.70;99.90
17632;DHT22;8934;51.194;17.150;2022-12-29T13:36:26;10.80;99.90
17632;DHT22;8934;51.194;17.150;2022-12-29T13:39:15;10.80;99.90
17632;DHT22;8934;51.194;17.150;2022-12-29T13:42:06;10.90;99.90
17632;DHT22;8934;51.194;17.150;2022-12-29T13:44:54;10.80;99.90
17632;DHT22;8934;51.194;17.150;2022-12-29T13:47:46;10.80;99.90
17632;DHT22;8934;51.194;17.150;2022-12-29T13:50:38;11.10;99.90
17632;DHT22;8934;51.194;17.150;2022-12-29T13:53:27;11.30;99.90
17632;DHT22;8934;51.194;17.150;2022-12-29T13:56:22;11.40;99.90
17632;DHT22;8934;51.194;17.150;2022-12-29T13:59:14;11.50;99.90
17632;DHT22;8934;51.194;17.150;2022-12-29T14:02:03;11.50;99.90
17632;DHT22;8934;51.194;17.150;2022-12-29T14:04:56;11.40;99.90
17632;DHT22;8934;51.194;17.150;2022-12-29T14:07:45;11.40;99.90
17632;DHT22;8934;51.194;17.150;2022-12-29T14:10:33;11.30;99.90
17632;DHT22;8934;51.194;17.150;2022-12-29T14:13:21;11.30;99.90
17632;DHT22;8934;51.194;17.150;2022-12-29T14:16:10;11.30;99.90
17632;DHT22;8934;51.194;17.150;2022-12-29T14:19:13;11.10;99.90
17632;DHT22;8934;51.194;17.150;2022-12-29T14:22:02;11.10;99.90
17632;DHT22;8934;51.194;17.150;2022-12-29T14:24:51;11.00;99.90
17632;DHT22;8934;51.194;17.150;2022-12-29T14:27:51;10.80;99.90
17632;DHT22;8934;51.194;17.150;2022-12-29T14:30:46;10.70;99.90
17632;DHT22;8934;51.194;17.150;2022-12-29T14:33:34;10.60;99.90
17632;DHT22;8934;51.194;17.150;2022-12-29T14:36:23;10.50;99.90
17632;DHT22;8934;51.194;17.150;2022-12-29T14:39:30;10.40;99.90
17632;DHT22;8934;51.194;17.150;2022-12-29T14:42:20;10.30;99.90
17632;DHT22;8934;51.194;17.150;2022-12-29T14:45:22;10.20;99.90
17632;DHT22;8934;51.194;17.150;2022-12-29T14:51:27;10.10;99.90
17632;DHT22;8934;51.194;17.150;2022-12-29T14:57:27;9.90;99.90
17632;DHT22;8934;51.194;17.150;2022-12-29T15:00:17;9.90;99.90
17632;DHT22;8934;51.194;17.150;2022-12-29T15:03:06;9.80;99.90
17632;DHT22;8934;51.194;17.150;2022-12-29T15:05:54;9.70;99.90
17632;DHT22;8934;51.194;17.150;2022-12-29T15:08:44;9.50;99.90
17632;DHT22;8934;51.194;17.150;2022-12-29T15:11:41;9.40;99.90
17632;DHT22;8934;51.194;17.150;2022-12-29T15:14:34;9.20;99.90
17632;DHT22;8934;51.194;17.150;2022-12-29T15:17:23;9.10;99.90
17632;DHT22;8934;51.194;17.150;2022-12-29T15:20:16;9.00;99.90
17632;DHT22;8934;51.194;17.150;2022-12-29T15:23:08;8.90;99.90
17632;DHT22;8934;51.194;17.150;2022-12-29T15:25:57;8.70;99.90
17632;DHT22;8934;51.194;17.150;2022-12-29T15:28:45;8.50;99.90
17632;DHT22;8934;51.194;17.150;2022-12-29T15:31:34;8.40;99.90
17632;DHT22;8934;51.194;17.150;2022-12-29T15:34:33;8.30;99.90
17632;DHT22;8934;51.194;17.150;2022-12-29T15:37:21;8.10;99.90
17632;DHT22;8934;51.194;17.150;2022-12-29T15:40:19;8.10;99.90
17632;DHT22;8934;51.194;17.150;2022-12-29T15:43:14;8.00;99.90
17632;DHT22;8934;51.194;17.150;2022-12-29T15:46:05;7.90;99.90
17632;DHT22;8934;51.194;17.150;2022-12-29T15:48:54;7.90;99.90
17632;DHT22;8934;51.194;17.150;2022-12-29T15:51:41;7.90;99.90
17632;DHT22;8934;51.194;17.150;2022-12-29T15:54:29;7.80;99.90
17632;DHT22;8934;51.194;17.150;2022-12-29T15:57:20;7.80;99.90
17632;DHT22;8934;51.194;17.150;2022-12-29T16:00:20;7.70;99.90
17632;DHT22;8934;51.194;17.150;2022-12-29T16:03:11;7.70;99.90
17632;DHT22;8934;51.194;17.150;2022-12-29T16:06:08;7.70;99.90
17632;DHT22;8934;51.194;17.150;2022-12-29T16:08:56;7.70;99.90
17632;DHT22;8934;51.194;17.150;2022-12-29T16:11:43;7.70;99.90
17632;DHT22;8934;51.194;17.150;2022-12-29T16:14:32;7.80;99.90
17632;DHT22;8934;51.194;17.150;2022-12-29T16:17:20;7.80;99.90
17632;DHT22;8934;51.194;17.150;2022-12-29T16:20:14;7.80;99.90
17632;DHT22;8934;51.194;17.150;2022-12-29T16:23:04;7.80;99.90
17632;DHT22;8934;51.194;17.150;2022-12-29T16:25:52;7.70;99.90
17632;DHT22;8934;51.194;17.150;2022-12-29T16:28:40;7.70;99.90
17632;DHT22;8934;51.194;17.150;2022-12-29T16:31:32;7.70;99.90
17632;DHT22;8934;51.194;17.150;2022-12-29T16:34:22;7.70;99.90
17632;DHT22;8934;51.194;17.150;2022-12-29T16:37:24;7.70;99.90
17632;DHT22;8934;51.194;17.150;2022-12-29T16:40:24;7.60;99.90
17632;DHT22;8934;51.194;17.150;2022-12-29T16:43:18;7.50;99.90
17632;DHT22;8934;51.194;17.150;2022-12-29T16:46:15;7.50;99.90
17632;DHT22;8934;51.194;17.150;2022-12-29T16:49:04;7.40;99.90
17632;DHT22;8934;51.194;17.150;2022-12-29T16:51:56;7.30;99.90
17632;DHT22;8934;51.194;17.150;2022-12-29T16:54:44;7.30;99.90
17632;DHT22;8934;51.194;17.150;2022-12-29T16:57:36;7.30;99.90
17632;DHT22;8934;51.194;17.150;2022-12-29T17:00:24;7.20;99.90
17632;DHT22;8934;51.194;17.150;2022-12-29T17:03:12;7.20;99.90
17632;DHT22;8934;51.194;17.150;2022-12-29T17:05:59;7.20;99.90
17632;DHT22;8934;51.194;17.150;2022-12-29T17:08:47;7.10;99.90
17632;DHT22;8934;51.194;17.150;2022-12-29T17:11:34;7.10;99.90
17632;DHT22;8934;51.194;17.150;2022-12-29T17:14:47;7.10;99.90
17632;DHT22;8934;51.194;17.150;2022-12-29T17:17:38;7.00;99.90
17632;DHT22;8934;51.194;17.150;2022-12-29T17:20:26;7.00;99.90
17632;DHT22;8934;51.194;17.150;2022-12-29T17:23:14;6.90;99.90
17632;DHT22;8934;51.194;17.150;2022-12-29T17:26:09;6.90;99.90
17632;DHT22;8934;51.194;17.150;2022-12-29T17:28:57;6.90;99.90
17632;DHT22;8934;51.194;17.150;2022-12-29T17:31:46;6.80;99.90
17632;DHT22;8934;51.194;17.150;2022-12-29T17:34:33;6.80;99.90
17632;DHT22;8934;51.194;17.150;2022-12-29T17:37:31;6.80;99.90
17632;DHT22;8934;51.194;17.150;2022-12-29T17:40:19;6.80;99.90
17632;DHT22;8934;51.194;17.150;2022-12-29T17:43:07;6.80;99.90
17632;DHT22;8934;51.194;17.150;2022-12-29T17:45:56;6.70;99.90
17632;DHT22;8934;51.194;17.150;2022-12-29T17:48:45;6.70;99.90
17632;DHT22;8934;51.194;17.150;2022-12-29T17:51:38;6.70;99.90
17632;DHT22;8934;51.194;17.150;2022-12-29T17:54:26;6.70;99.90
17632;DHT22;8934;51.194;17.150;2022-12-29T17:57:13;6.70;99.90
17632;DHT22;8934;51.194;17.150;2022-12-29T18:00:01;6.70;99.90
17632;DHT22;8934;51.194;17.150;2022-12-29T18:02:57;6.60;99.90
17632;DHT22;8934;51.194;17.150;2022-12-29T18:05:46;6.60;99.90
17632;DHT22;8934;51.194;17.150;2022-12-29T18:08:34;6.60;99.90
17632;DHT22;8934;51.194;17.150;2022-12-29T18:11:22;6.70;99.90
17632;DHT22;8934;51.194;17.150;2022-12-29T18:14:10;6.80;99.90
17632;DHT22;8934;51.194;17.150;2022-12-29T18:16:58;6.80;99.90
17632;DHT22;8934;51.194;17.150;2022-12-29T18:19:45;6.90;99.90
17632;DHT22;8934;51.194;17.150;2022-12-29T18:22:34;7.00;99.90
17632;DHT22;8934;51.194;17.150;2022-12-29T18:25:23;7.10;99.90
17632;DHT22;8934;51.194;17.150;2022-12-29T18:28:11;7.10;99.90
17632;DHT22;8934;51.194;17.150;2022-12-29T18:30:59;7.20;99.90
17632;DHT22;8934;51.194;17.150;2022-12-29T18:33:47;7.20;99.90
17632;DHT22;8934;51.194;17.150;2022-12-29T18:36:35;7.20;99.90
17632;DHT22;8934;51.194;17.150;2022-12-29T18:39:23;7.20;99.90
17632;DHT22;8934;51.194;17.150;2022-12-29T18:42:15;7.20;99.90
17632;DHT22;8934;51.194;17.150;2022-12-29T18:45:08;7.10;99.90
17632;DHT22;8934;51.194;17.150;2022-12-29T18:47:57;7.10;99.90